createdAt,value
2022-10-19T08:03:30.000Z,0.140625
2022-10-19T08:03:50.000Z,25.072266
2022-10-19T08:04:11.000Z,16.892578
2022-10-19T08:04:32.000Z,7.378906
2022-10-19T08:04:53.000Z,9.631836
2022-10-19T08:05:14.000Z,26.236328
2022-10-19T08:05:34.000Z,22.891602
2022-10-19T08:05:54.000Z,19.306641
2022-10-19T08:06:15.000Z,25.982422
2022-10-19T08:06:35.000Z,5.659180
2022-10-19T08:06:57.000Z,17.148438
2022-10-19T08:07:17.000Z,9.745117
2022-10-19T08:07:49.000Z,14.620117
2022-10-19T08:08:09.000Z,11.852539
2022-10-19T08:08:29.000Z,14.587891
2022-10-19T08:08:49.000Z,1.020508
2022-10-19T08:09:10.000Z,11.469727
2022-10-19T08:09:30.000Z,9.098633
2022-10-19T08:09:51.000Z,24.744141
2022-10-19T08:10:12.000Z,12.440430
2022-10-19T08:10:32.000Z,13.647461
2022-10-19T08:10:53.000Z,13.667969
2022-10-19T08:11:14.000Z,12.314453
2022-10-19T08:11:34.000Z,20.937500
2022-10-19T08:11:54.000Z,14.331055
2022-10-19T08:12:15.000Z,3.320312
2022-10-19T08:12:35.000Z,21.098633
2022-10-19T08:12:55.000Z,9.429688
2022-10-19T08:13:16.000Z,7.607422
2022-10-19T08:13:37.000Z,10.100586
2022-10-19T08:13:57.000Z,16.416016
2022-10-19T08:14:17.000Z,9.262695
2022-10-19T08:14:38.000Z,0.703125
2022-10-19T08:14:58.000Z,1.426758
2022-10-19T08:15:18.000Z,25.902344
2022-10-19T08:15:38.000Z,10.115234
2022-10-19T08:15:59.000Z,16.342773
2022-10-19T08:16:20.000Z,17.055664
2022-10-19T08:16:40.000Z,12.458008
2022-10-19T08:17:00.000Z,14.751953
2022-10-19T08:17:21.000Z,6.494141
2022-10-19T08:17:41.000Z,7.777344
2022-10-19T08:18:01.000Z,23.467773
2022-10-19T08:18:21.000Z,10.799805
2022-10-19T08:18:42.000Z,17.159180
2022-10-19T08:19:03.000Z,28.531250
2022-10-19T08:19:23.000Z,15.839844
2022-10-19T08:19:44.000Z,14.832031
2022-10-19T08:20:04.000Z,16.612305
2022-10-19T08:20:24.000Z,11.605469
2022-10-19T08:20:44.000Z,14.351562
2022-10-19T08:21:05.000Z,15.755859
2022-10-19T08:21:25.000Z,11.892578
2022-10-19T08:21:46.000Z,3.582031
2022-10-19T08:22:07.000Z,29.227539
2022-10-19T08:22:28.000Z,19.018555
2022-10-19T08:22:49.000Z,11.609375
2022-10-19T08:23:10.000Z,12.859375
2022-10-19T08:23:30.000Z,13.439453
2022-10-19T08:23:50.000Z,19.608398
2022-10-19T08:24:10.000Z,33.097656
2022-10-19T08:24:31.000Z,14.217773
2022-10-19T08:24:51.000Z,4.281250
2022-10-19T08:25:12.000Z,1.564453
2022-10-19T08:25:32.000Z,4.947266
2022-10-19T08:25:52.000Z,29.311523
2022-10-19T08:26:13.000Z,12.751953
2022-10-19T08:26:33.000Z,34.499023
2022-10-19T08:26:53.000Z,17.415039
2022-10-19T08:27:14.000Z,11.077148
2022-10-19T08:27:35.000Z,19.539062
2022-10-19T08:27:56.000Z,20.520508
2022-10-19T08:28:16.000Z,36.296875
2022-10-19T08:28:37.000Z,18.295898
2022-10-19T08:28:57.000Z,20.142578
2022-10-19T08:29:17.000Z,11.393555
2022-10-19T08:29:38.000Z,10.216797
2022-10-19T08:29:58.000Z,29.202148
2022-10-19T08:30:19.000Z,12.825195
2022-10-19T08:30:39.000Z,17.789062
2022-10-19T08:30:59.000Z,16.120117
2022-10-19T08:31:20.000Z,12.419922
2022-10-19T08:31:40.000Z,15.023438
2022-10-19T08:32:00.000Z,16.274414
2022-10-19T08:32:21.000Z,8.535156
2022-10-19T08:32:41.000Z,1.039062
2022-10-19T08:33:02.000Z,0.116211
2022-10-19T08:33:23.000Z,1.475586
2022-10-19T08:33:23.000Z,0.116211
2022-10-19T08:42:23.000Z,0.070312
2022-10-19T08:42:44.000Z,0.083008
2022-10-19T08:43:04.000Z,0.068359
2022-10-19T08:43:13.000Z,1.508789
2022-10-19T08:51:46.000Z,0.107422
2022-10-19T08:52:06.000Z,0.089844
2022-10-19T08:52:27.000Z,0.086914
2022-10-19T08:52:36.000Z,1.466797
2022-10-19T09:01:09.000Z,0.104492
2022-10-19T09:01:29.000Z,0.102539
2022-10-19T09:01:50.000Z,0.102539
2022-10-19T09:01:59.000Z,1.515625
2022-10-19T09:09:38.000Z,0.104492
2022-10-19T09:09:59.000Z,0.111328
2022-10-19T09:10:19.000Z,0.112305
2022-10-19T09:10:28.000Z,1.363281
2022-10-19T09:17:44.000Z,0.093750
2022-10-19T09:18:05.000Z,0.084961
2022-10-19T09:18:25.000Z,0.075195
2022-10-19T09:18:34.000Z,1.283203
2022-10-19T09:26:10.000Z,0.102539
2022-10-19T09:26:31.000Z,0.068359
2022-10-19T09:26:51.000Z,0.088867
2022-10-19T09:27:00.000Z,1.370117
2022-10-19T09:33:59.000Z,0.084961
2022-10-19T09:34:20.000Z,0.107422
2022-10-19T09:34:40.000Z,0.089844
2022-10-19T09:34:49.000Z,1.342773
2022-10-19T09:41:49.000Z,0.102539
2022-10-19T09:42:09.000Z,0.091797
2022-10-19T09:42:29.000Z,0.081055
2022-10-19T09:42:39.000Z,1.253906
2022-10-19T09:49:11.000Z,0.079102
2022-10-19T09:49:31.000Z,0.103516
2022-10-19T09:49:51.000Z,0.104492
2022-10-19T09:50:00.000Z,1.297852
2022-10-19T09:57:08.000Z,0.073242
2022-10-19T09:57:28.000Z,0.089844
2022-10-19T09:57:49.000Z,0.083008
2022-10-19T09:57:58.000Z,1.332031
2022-10-19T10:05:30.000Z,0.109375
2022-10-19T10:05:50.000Z,0.094727
2022-10-19T10:06:11.000Z,0.110352
2022-10-19T10:06:20.000Z,1.377930
2022-10-19T10:13:56.000Z,0.123047
2022-10-19T10:14:17.000Z,0.101562
2022-10-19T10:14:37.000Z,0.109375
2022-10-19T10:14:46.000Z,1.358398
2022-10-19T10:20:50.000Z,0.118164
2022-10-19T10:21:10.000Z,0.103516
2022-10-19T10:21:30.000Z,0.115234
2022-10-19T10:21:40.000Z,1.392578
2022-10-19T10:26:59.000Z,0.109375
2022-10-19T10:27:19.000Z,0.113281
2022-10-19T10:27:39.000Z,0.122070
2022-10-19T10:27:49.000Z,1.509766
2022-10-19T10:33:47.000Z,0.117188
2022-10-19T10:34:07.000Z,0.108398
2022-10-19T10:34:28.000Z,0.104492
2022-10-19T10:34:37.000Z,1.459961
2022-10-19T10:40:39.000Z,0.119141
2022-10-19T10:41:00.000Z,0.105469
2022-10-19T10:41:20.000Z,0.112305
2022-10-19T10:41:28.000Z,1.512695
2022-10-19T10:47:29.000Z,0.114258
2022-10-19T10:47:49.000Z,0.122070
2022-10-19T10:48:09.000Z,0.118164
2022-10-19T10:48:19.000Z,1.342773
2022-10-19T10:53:57.000Z,0.119141
2022-10-19T10:54:18.000Z,0.099609
2022-10-19T10:54:38.000Z,0.114258
2022-10-19T10:54:47.000Z,1.375000
2022-10-19T11:00:32.000Z,0.083008
2022-10-19T11:00:53.000Z,0.089844
2022-10-19T11:01:13.000Z,0.093750
2022-10-19T11:01:22.000Z,1.364258
2022-10-19T11:07:17.000Z,0.102539
2022-10-19T11:07:37.000Z,0.107422
2022-10-19T11:07:57.000Z,0.097656
2022-10-19T11:08:07.000Z,1.353516
2022-10-19T11:13:26.000Z,0.127930
2022-10-19T11:13:48.000Z,0.125000
2022-10-19T11:14:08.000Z,0.129883
2022-10-19T11:14:16.000Z,1.350586
2022-10-19T11:19:28.000Z,0.121094
2022-10-19T11:19:48.000Z,0.139648
2022-10-19T11:20:09.000Z,0.122070
2022-10-19T11:20:18.000Z,1.405273
2022-10-19T11:24:36.000Z,0.146484
2022-10-19T11:24:57.000Z,0.138672
2022-10-19T11:25:17.000Z,0.131836
2022-10-19T11:25:26.000Z,1.399414
2022-10-19T11:30:08.000Z,0.132812
2022-10-19T11:30:28.000Z,0.139648
2022-10-19T11:30:49.000Z,0.129883
2022-10-19T11:30:58.000Z,1.494141
2022-10-19T11:35:45.000Z,0.117188
2022-10-19T11:36:05.000Z,0.132812
2022-10-19T11:36:25.000Z,0.128906
2022-10-19T11:36:34.000Z,1.406250
2022-10-19T11:41:33.000Z,0.115234
2022-10-19T11:41:53.000Z,0.125000
2022-10-19T11:42:14.000Z,0.124023
2022-10-19T11:42:23.000Z,1.408203
2022-10-19T11:47:08.000Z,0.106445
2022-10-19T11:47:29.000Z,0.143555
2022-10-19T11:47:49.000Z,0.134766
2022-10-19T11:47:58.000Z,1.478516
2022-10-19T11:53:39.000Z,0.124023
2022-10-19T11:53:59.000Z,0.120117
2022-10-19T11:54:20.000Z,0.103516
2022-10-19T11:54:28.000Z,1.248047
2022-10-19T11:59:25.000Z,0.140625
2022-10-19T11:59:45.000Z,0.110352
2022-10-19T12:00:06.000Z,0.125977
2022-10-19T12:00:15.000Z,1.363281
2022-10-19T12:05:25.000Z,0.117188
2022-10-19T12:05:45.000Z,0.114258
2022-10-19T12:06:05.000Z,0.121094
2022-10-19T12:06:14.000Z,1.380859
2022-10-19T12:11:18.000Z,0.116211
2022-10-19T12:11:38.000Z,0.132812
2022-10-19T12:11:59.000Z,0.123047
2022-10-19T12:12:08.000Z,1.377930
2022-10-19T12:16:02.000Z,0.177734
2022-10-19T12:16:22.000Z,0.197266
2022-10-19T12:16:42.000Z,0.201172
2022-10-19T12:16:52.000Z,1.428711
2022-10-19T12:20:35.000Z,0.153320
2022-10-19T12:20:55.000Z,0.170898
2022-10-19T12:21:16.000Z,0.195312
2022-10-19T12:21:25.000Z,1.458008
2022-10-19T12:25:59.000Z,0.116211
2022-10-19T12:26:19.000Z,0.125977
2022-10-19T12:26:40.000Z,0.158203
2022-10-19T12:26:48.000Z,1.391602
2022-10-19T12:32:22.000Z,0.115234
2022-10-19T12:32:42.000Z,0.123047
2022-10-19T12:33:02.000Z,0.110352
2022-10-19T12:33:12.000Z,1.436523
2022-10-19T12:39:06.000Z,0.242188
2022-10-19T12:39:26.000Z,11.062500
2022-10-19T12:39:47.000Z,21.083008
2022-10-19T12:40:08.000Z,13.493164
2022-10-19T12:40:28.000Z,9.981445
2022-10-19T12:40:48.000Z,5.913086
2022-10-19T12:41:09.000Z,5.921875
2022-10-19T12:41:29.000Z,11.114258
2022-10-19T12:41:49.000Z,9.453125
2022-10-19T12:42:09.000Z,7.375000
2022-10-19T12:42:30.000Z,1.125977
2022-10-19T12:42:50.000Z,22.676758
2022-10-19T12:43:10.000Z,14.311523
2022-10-19T12:43:31.000Z,6.400391
2022-10-19T12:43:51.000Z,9.946289
2022-10-19T12:44:12.000Z,16.163086
2022-10-19T12:44:32.000Z,12.593750
2022-10-19T12:44:52.000Z,14.557617
2022-10-19T12:45:13.000Z,17.763672
2022-10-19T12:45:33.000Z,15.104492
2022-10-19T12:45:53.000Z,14.236328
2022-10-19T12:46:15.000Z,7.784180
2022-10-19T12:46:35.000Z,4.403320
2022-10-19T12:46:56.000Z,4.959961
2022-10-19T12:47:16.000Z,21.824219
2022-10-19T12:47:36.000Z,11.172852
2022-10-19T12:47:57.000Z,2.372070
2022-10-19T12:48:17.000Z,15.566406
2022-10-19T12:48:38.000Z,13.751953
2022-10-19T12:48:58.000Z,8.772461
2022-10-19T12:49:19.000Z,25.115234
2022-10-19T12:49:40.000Z,18.932617
2022-10-19T12:50:00.000Z,12.403320
2022-10-19T12:50:20.000Z,9.860352
2022-10-19T12:50:41.000Z,7.115234
2022-10-19T12:51:01.000Z,15.999023
2022-10-19T12:51:21.000Z,13.446289
2022-10-19T12:51:42.000Z,11.140625
2022-10-19T12:52:02.000Z,16.222656
2022-10-19T12:52:24.000Z,18.469727
2022-10-19T12:52:44.000Z,19.103516
2022-10-19T12:53:04.000Z,10.043945
2022-10-19T12:53:25.000Z,18.307617
2022-10-19T12:53:45.000Z,5.647461
2022-10-19T12:54:05.000Z,19.352539
2022-10-19T12:54:26.000Z,12.590820
2022-10-19T12:54:47.000Z,16.285156
2022-10-19T12:55:07.000Z,10.008789
2022-10-19T12:55:28.000Z,21.137695
2022-10-19T12:55:48.000Z,30.363281
2022-10-19T12:56:08.000Z,8.090820
2022-10-19T12:56:28.000Z,13.073242
2022-10-19T12:56:49.000Z,5.416016
2022-10-19T12:57:10.000Z,12.866211
2022-10-19T12:57:30.000Z,10.879883
2022-10-19T12:57:50.000Z,10.124023
2022-10-19T12:58:11.000Z,12.714844
2022-10-19T12:58:31.000Z,13.050781
2022-10-19T12:58:51.000Z,0.689453
2022-10-19T12:59:12.000Z,21.600586
2022-10-19T12:59:32.000Z,13.544922
2022-10-19T12:59:53.000Z,16.873047
2022-10-19T13:00:13.000Z,13.250000
2022-10-19T13:00:34.000Z,8.716797
2022-10-19T13:00:54.000Z,20.191406
2022-10-19T13:01:15.000Z,17.379883
2022-10-19T13:01:35.000Z,26.059570
2022-10-19T13:01:56.000Z,11.877930
2022-10-19T13:02:17.000Z,14.284180
2022-10-19T13:02:38.000Z,12.312500
2022-10-19T13:02:58.000Z,15.219727
2022-10-19T13:03:18.000Z,15.446289
2022-10-19T13:03:39.000Z,1.375977
2022-10-19T13:03:59.000Z,0.562500
2022-10-19T13:04:19.000Z,0.607422
2022-10-19T13:04:20.000Z,1.969727
2022-10-19T13:06:33.000Z,22.882812
2022-10-19T13:06:53.000Z,17.750000
2022-10-19T13:07:14.000Z,12.773438
2022-10-19T13:07:34.000Z,15.943359
2022-10-19T13:07:54.000Z,10.912109
2022-10-19T13:08:15.000Z,10.193359
2022-10-19T13:08:35.000Z,9.732422
2022-10-19T13:08:55.000Z,10.025391
2022-10-19T13:09:16.000Z,12.568359
2022-10-19T13:09:36.000Z,6.905273
2022-10-19T13:09:57.000Z,14.058594
2022-10-19T13:10:17.000Z,13.472656
2022-10-19T13:10:37.000Z,21.283203
2022-10-19T13:10:57.000Z,1.214844
2022-10-19T13:11:18.000Z,2.949219
2022-10-19T13:11:38.000Z,23.460938
2022-10-19T13:11:58.000Z,14.316406
2022-10-19T13:12:19.000Z,9.803711
2022-10-19T13:12:39.000Z,17.437500
2022-10-19T13:12:59.000Z,10.629883
2022-10-19T13:13:20.000Z,21.627930
2022-10-19T13:13:40.000Z,9.543945
2022-10-19T13:14:01.000Z,1.265625
2022-10-19T13:14:22.000Z,13.602539
2022-10-19T13:14:43.000Z,20.400391
2022-10-19T13:15:03.000Z,6.895508
2022-10-19T13:15:24.000Z,2.170898
2022-10-19T13:15:44.000Z,14.449219
2022-10-19T13:16:04.000Z,17.407227
2022-10-19T13:16:25.000Z,14.357422
2022-10-19T13:16:45.000Z,8.652344
2022-10-19T13:17:05.000Z,14.062500
2022-10-19T13:17:26.000Z,8.920898
2022-10-19T13:17:46.000Z,11.820312
2022-10-19T13:18:06.000Z,15.657227
2022-10-19T13:18:27.000Z,26.759766
2022-10-19T13:18:47.000Z,20.590820
2022-10-19T13:19:07.000Z,11.229492
2022-10-19T13:19:27.000Z,0.138672
2022-10-19T13:19:48.000Z,0.143555
2022-10-19T13:20:08.000Z,0.131836
